LTAT/MLX METAR and TAF weather

Enter ICAO airport designator
Station Type Date Time Source
LTAT METAR 2019/06/26 15:50 UTC NOAA

LTAT 261550Z 06004KT 030V100 9999 FEW040 36/09 Q1011 NOSIG


Station Type Date Time Source
LTAT Decoded METAR 2019/06/26 15:50 UTC NOAA

Malatya / Erhac, Turkey (LTAT) 38-26N 038-05E 849M
Jun 26, 2019 - 11:50 AM EDT / 2019.06.26 1550 UTC
Wind: from the ENE (060 degrees) at 5 MPH (4 KT) (direction variable):0
Visibility: greater than 7 mile(s):0
Sky conditions: mostly clear
Temperature: 96 F (36 C)
Dew Point: 48 F (9 C)
Relative Humidity: 19%
Pressure (altimeter): 29.85 in. Hg (1011 hPa)
ob: LTAT 261550Z 06004KT 030V100 9999 FEW040 36/09 Q1011 NOSIG
cycle: 16

Station Type Date Time Source
LTAT TAF 2019/06/26 12:03 UTC NOAA

TAF LTAT 261040Z 2612/2712 VRB02KT 9999 FEW040
BECMG 2616/2618 CAVOK
TEMPO 2617/2621 01012KT
BECMG 2707/2709 FEW040

Example: see airport list